Terminal Aerodrome Forecast
Issued by NWS Sterling, VA

Current Version | Previous Version | Graphics & Text | Print | Product List | Glossary On
Versions: 1 2 3 4 5 6 7 8 9 10 11 12 13 14
080
FTUS41 KLWX 200537
TAFMRB
TAF
KMRB 200537Z 2006/2106 VRB03KT P6SM FEW060 FEW200
     FM200900 VRB03KT 4SM BR FEW080 FEW250
     FM201100 VRB03KT P6SM FEW200 FEW250=

USA.gov is the U.S. government's official web portal to all federal, state and local government web resources and services.